sensor_id;sensor_type;location;lat;lon;timestamp;pressure;altitude;pressure_sealevel;temperature;humidity
21838;BME280;11081;45.946;6.140;2024-01-06T00:02:11;93946.72;;;6.15;100.00
21838;BME280;11081;45.946;6.140;2024-01-06T00:04:39;93955.16;;;6.10;100.00
21838;BME280;11081;45.946;6.140;2024-01-06T00:07:07;93953.81;;;6.20;100.00
21838;BME280;11081;45.946;6.140;2024-01-06T00:09:35;93959.94;;;6.37;100.00
21838;BME280;11081;45.946;6.140;2024-01-06T00:12:04;93947.09;;;6.42;100.00
21838;BME280;11081;45.946;6.140;2024-01-06T00:14:32;93956.13;;;6.51;100.00
21838;BME280;11081;45.946;6.140;2024-01-06T00:17:01;93958.25;;;6.66;100.00
21838;BME280;11081;45.946;6.140;2024-01-06T00:19:29;93951.06;;;6.68;100.00
21838;BME280;11081;45.946;6.140;2024-01-06T00:21:57;93943.03;;;6.69;100.00
21838;BME280;11081;45.946;6.140;2024-01-06T00:24:27;93940.00;;;6.72;100.00
21838;BME280;11081;45.946;6.140;2024-01-06T00:26:55;93935.38;;;6.75;99.98
21838;BME280;11081;45.946;6.140;2024-01-06T00:29:23;93941.56;;;6.73;99.75
21838;BME280;11081;45.946;6.140;2024-01-06T00:31:51;93941.81;;;6.72;100.00
21838;BME280;11081;45.946;6.140;2024-01-06T00:34:20;93953.41;;;6.69;100.00
21838;BME280;11081;45.946;6.140;2024-01-06T00:36:48;93957.44;;;6.65;100.00
21838;BME280;11081;45.946;6.140;2024-01-06T00:39:16;93970.31;;;6.60;100.00
21838;BME280;11081;45.946;6.140;2024-01-06T00:41:45;93959.63;;;6.68;100.00
21838;BME280;11081;45.946;6.140;2024-01-06T00:44:13;93958.16;;;6.72;100.00
21838;BME280;11081;45.946;6.140;2024-01-06T00:46:41;93955.66;;;6.78;100.00
21838;BME280;11081;45.946;6.140;2024-01-06T00:49:08;93955.19;;;6.81;100.00
21838;BME280;11081;45.946;6.140;2024-01-06T00:51:38;93947.75;;;6.84;100.00
21838;BME280;11081;45.946;6.140;2024-01-06T00:54:06;93959.69;;;6.85;100.00
21838;BME280;11081;45.946;6.140;2024-01-06T00:56:34;93962.66;;;6.89;100.00
21838;BME280;11081;45.946;6.140;2024-01-06T00:59:02;93962.19;;;6.92;99.90
21838;BME280;11081;45.946;6.140;2024-01-06T01:01:29;93967.38;;;6.92;100.00
21838;BME280;11081;45.946;6.140;2024-01-06T01:03:58;93973.34;;;6.81;100.00
21838;BME280;11081;45.946;6.140;2024-01-06T01:06:26;93970.53;;;6.70;100.00
21838;BME280;11081;45.946;6.140;2024-01-06T01:08:55;93977.97;;;6.55;100.00
21838;BME280;11081;45.946;6.140;2024-01-06T01:11:23;93978.53;;;6.46;100.00
21838;BME280;11081;45.946;6.140;2024-01-06T01:13:51;93976.25;;;6.37;100.00
21838;BME280;11081;45.946;6.140;2024-01-06T01:16:19;93969.72;;;6.35;100.00
21838;BME280;11081;45.946;6.140;2024-01-06T01:18:47;93968.94;;;6.34;100.00
21838;BME280;11081;45.946;6.140;2024-01-06T01:21:15;93968.25;;;6.39;100.00
21838;BME280;11081;45.946;6.140;2024-01-06T01:23:43;93982.81;;;6.52;100.00
21838;BME280;11081;45.946;6.140;2024-01-06T01:26:12;93989.00;;;6.62;100.00
21838;BME280;11081;45.946;6.140;2024-01-06T01:28:40;93979.09;;;6.59;100.00
21838;BME280;11081;45.946;6.140;2024-01-06T01:31:09;93987.44;;;6.61;100.00
21838;BME280;11081;45.946;6.140;2024-01-06T01:33:37;93987.44;;;6.61;100.00
21838;BME280;11081;45.946;6.140;2024-01-06T01:36:05;93988.47;;;6.49;100.00
21838;BME280;11081;45.946;6.140;2024-01-06T01:38:33;94002.06;;;6.44;100.00
21838;BME280;11081;45.946;6.140;2024-01-06T01:41:01;94002.31;;;6.54;100.00
21838;BME280;11081;45.946;6.140;2024-01-06T01:43:31;94002.31;;;6.54;100.00
21838;BME280;11081;45.946;6.140;2024-01-06T01:45:58;93998.91;;;6.42;100.00
21838;BME280;11081;45.946;6.140;2024-01-06T01:48:27;93997.66;;;6.33;100.00
21838;BME280;11081;45.946;6.140;2024-01-06T01:50:56;94004.53;;;6.39;100.00
21838;BME280;11081;45.946;6.140;2024-01-06T01:53:24;94013.13;;;6.51;100.00
21838;BME280;11081;45.946;6.140;2024-01-06T01:55:52;94008.16;;;6.61;100.00
21838;BME280;11081;45.946;6.140;2024-01-06T01:58:21;94008.16;;;6.61;100.00
21838;BME280;11081;45.946;6.140;2024-01-06T02:00:51;94008.41;;;6.60;100.00
21838;BME280;11081;45.946;6.140;2024-01-06T02:03:19;94004.78;;;6.49;100.00
21838;BME280;11081;45.946;6.140;2024-01-06T02:05:47;94007.25;;;6.44;100.00
21838;BME280;11081;45.946;6.140;2024-01-06T02:08:15;94008.50;;;6.53;100.00
21838;BME280;11081;45.946;6.140;2024-01-06T02:10:43;94006.59;;;6.60;100.00
21838;BME280;11081;45.946;6.140;2024-01-06T02:13:11;94014.47;;;6.65;100.00
21838;BME280;11081;45.946;6.140;2024-01-06T02:15:39;94005.72;;;6.66;100.00
21838;BME280;11081;45.946;6.140;2024-01-06T02:18:09;94022.06;;;6.67;100.00
21838;BME280;11081;45.946;6.140;2024-01-06T02:20:37;94009.28;;;6.65;100.00
21838;BME280;11081;45.946;6.140;2024-01-06T02:23:08;94009.06;;;6.55;100.00
21838;BME280;11081;45.946;6.140;2024-01-06T02:25:36;94015.16;;;6.49;100.00
21838;BME280;11081;45.946;6.140;2024-01-06T02:28:04;94007.84;;;6.58;100.00
21838;BME280;11081;45.946;6.140;2024-01-06T02:30:32;94011.31;;;6.63;100.00
21838;BME280;11081;45.946;6.140;2024-01-06T02:33:00;94012.47;;;6.67;100.00
21838;BME280;11081;45.946;6.140;2024-01-06T02:35:28;94008.88;;;6.68;100.00
21838;BME280;11081;45.946;6.140;2024-01-06T02:37:56;94018.78;;;6.71;100.00
21838;BME280;11081;45.946;6.140;2024-01-06T02:40:25;94012.59;;;6.72;100.00
21838;BME280;11081;45.946;6.140;2024-01-06T02:42:53;94013.16;;;6.75;99.80
21838;BME280;11081;45.946;6.140;2024-01-06T02:45:21;94013.16;;;6.75;99.24
21838;BME280;11081;45.946;6.140;2024-01-06T02:47:49;94017.66;;;6.67;98.19
21838;BME280;11081;45.946;6.140;2024-01-06T02:50:17;94010.19;;;6.59;97.02
21838;BME280;11081;45.946;6.140;2024-01-06T02:52:45;94003.31;;;6.53;96.79
21838;BME280;11081;45.946;6.140;2024-01-06T02:55:13;94003.44;;;6.58;97.14
21838;BME280;11081;45.946;6.140;2024-01-06T02:57:43;94010.75;;;6.61;96.97
21838;BME280;11081;45.946;6.140;2024-01-06T03:00:11;94010.75;;;6.61;97.32
21838;BME280;11081;45.946;6.140;2024-01-06T03:02:39;94025.28;;;6.62;95.97
21838;BME280;11081;45.946;6.140;2024-01-06T03:05:09;94027.31;;;6.60;96.01
21838;BME280;11081;45.946;6.140;2024-01-06T03:07:37;94017.75;;;6.61;96.07
21838;BME280;11081;45.946;6.140;2024-01-06T03:10:05;94023.50;;;6.51;95.28
21838;BME280;11081;45.946;6.140;2024-01-06T03:12:34;94021.13;;;6.50;96.39
21838;BME280;11081;45.946;6.140;2024-01-06T03:15:03;94020.34;;;6.49;96.44
21838;BME280;11081;45.946;6.140;2024-01-06T03:17:31;94020.78;;;6.46;96.44
21838;BME280;11081;45.946;6.140;2024-01-06T03:19:59;94021.59;;;6.47;96.23
21838;BME280;11081;45.946;6.140;2024-01-06T03:22:27;94025.06;;;6.52;96.34
21838;BME280;11081;45.946;6.140;2024-01-06T03:24:55;94021.34;;;6.48;96.31
21838;BME280;11081;45.946;6.140;2024-01-06T03:27:23;94029.00;;;6.43;96.36
21838;BME280;11081;45.946;6.140;2024-01-06T03:29:51;94027.56;;;6.47;96.55
21838;BME280;11081;45.946;6.140;2024-01-06T03:32:21;94031.50;;;6.50;97.11
21838;BME280;11081;45.946;6.140;2024-01-06T03:34:49;94030.94;;;6.48;97.56
21838;BME280;11081;45.946;6.140;2024-01-06T03:37:17;94035.88;;;6.49;95.97
21838;BME280;11081;45.946;6.140;2024-01-06T03:39:45;94035.88;;;6.49;96.04
21838;BME280;11081;45.946;6.140;2024-01-06T03:42:13;94035.44;;;6.52;96.25
21838;BME280;11081;45.946;6.140;2024-01-06T03:44:41;94030.25;;;6.52;96.70
21838;BME280;11081;45.946;6.140;2024-01-06T03:47:09;94031.47;;;6.38;96.07
21838;BME280;11081;45.946;6.140;2024-01-06T03:49:38;94028.88;;;6.38;96.26
21838;BME280;11081;45.946;6.140;2024-01-06T03:52:06;94027.97;;;6.44;96.19
21838;BME280;11081;45.946;6.140;2024-01-06T03:54:34;94024.38;;;6.45;95.96
21838;BME280;11081;45.946;6.140;2024-01-06T03:57:02;94033.38;;;6.31;95.49
21838;BME280;11081;45.946;6.140;2024-01-06T03:59:30;94028.88;;;6.38;95.95
21838;BME280;11081;45.946;6.140;2024-01-06T04:01:58;94023.94;;;6.48;95.62
21838;BME280;11081;45.946;6.140;2024-01-06T04:04:26;94022.94;;;6.49;94.78
21838;BME280;11081;45.946;6.140;2024-01-06T04:06:55;94024.38;;;6.45;94.67
21838;BME280;11081;45.946;6.140;2024-01-06T04:09:23;94023.94;;;6.48;94.15
21838;BME280;11081;45.946;6.140;2024-01-06T04:11:51;94025.06;;;6.52;93.80
21838;BME280;11081;45.946;6.140;2024-01-06T04:14:19;94027.56;;;6.47;94.07
21838;BME280;11081;45.946;6.140;2024-01-06T04:16:47;94026.41;;;6.43;93.66
21838;BME280;11081;45.946;6.140;2024-01-06T04:19:15;94019.63;;;6.42;93.77
21838;BME280;11081;45.946;6.140;2024-01-06T04:21:43;94033.81;;;6.28;93.69
21838;BME280;11081;45.946;6.140;2024-01-06T04:24:12;94028.63;;;6.28;94.35
21838;BME280;11081;45.946;6.140;2024-01-06T04:26:40;94030.22;;;6.29;94.92
21838;BME280;11081;45.946;6.140;2024-01-06T04:29:11;94023.78;;;6.31;94.93
21838;BME280;11081;45.946;6.140;2024-01-06T04:31:40;94021.44;;;6.30;94.09
21838;BME280;11081;45.946;6.140;2024-01-06T04:34:08;94024.09;;;6.11;94.65
21838;BME280;11081;45.946;6.140;2024-01-06T04:36:37;94036.13;;;6.06;95.26
21838;BME280;11081;45.946;6.140;2024-01-06T04:39:05;94031.28;;;6.09;95.28
21838;BME280;11081;45.946;6.140;2024-01-06T04:41:34;94043.09;;;6.05;94.68
21838;BME280;11081;45.946;6.140;2024-01-06T04:44:02;94036.91;;;6.06;94.47
21838;BME280;11081;45.946;6.140;2024-01-06T04:46:30;94037.31;;;6.03;93.58
21838;BME280;11081;45.946;6.140;2024-01-06T04:48:58;94032.59;;;6.00;93.57
21838;BME280;11081;45.946;6.140;2024-01-06T04:51:26;94032.03;;;5.98;94.07
21838;BME280;11081;45.946;6.140;2024-01-06T04:53:54;94028.97;;;6.01;93.63
21838;BME280;11081;45.946;6.140;2024-01-06T04:56:22;94035.00;;;6.14;93.33
21838;BME280;11081;45.946;6.140;2024-01-06T04:58:51;94034.34;;;6.18;92.37
21838;BME280;11081;45.946;6.140;2024-01-06T05:01:19;94025.22;;;6.16;92.11
21838;BME280;11081;45.946;6.140;2024-01-06T05:03:47;94029.59;;;6.15;92.33
21838;BME280;11081;45.946;6.140;2024-01-06T05:06:16;94029.94;;;6.19;91.97
21838;BME280;11081;45.946;6.140;2024-01-06T05:08:44;94009.22;;;6.19;92.39
21838;BME280;11081;45.946;6.140;2024-01-06T05:11:12;94012.13;;;6.10;91.93
21838;BME280;11081;45.946;6.140;2024-01-06T05:13:40;94018.91;;;6.11;91.52
21838;BME280;11081;45.946;6.140;2024-01-06T05:16:09;94014.16;;;6.08;91.63
21838;BME280;11081;45.946;6.140;2024-01-06T05:18:37;94014.59;;;6.05;91.00
21838;BME280;11081;45.946;6.140;2024-01-06T05:21:05;94017.19;;;6.05;90.84
21838;BME280;11081;45.946;6.140;2024-01-06T05:23:33;94019.78;;;6.05;91.25
21838;BME280;11081;45.946;6.140;2024-01-06T05:26:01;94023.97;;;6.06;90.64
21838;BME280;11081;45.946;6.140;2024-01-06T05:28:29;94023.81;;;6.01;90.92
21838;BME280;11081;45.946;6.140;2024-01-06T05:30:57;94030.38;;;6.04;91.01
21838;BME280;11081;45.946;6.140;2024-01-06T05:33:26;94035.75;;;6.02;90.82
21838;BME280;11081;45.946;6.140;2024-01-06T05:35:54;94034.38;;;6.00;91.49
21838;BME280;11081;45.946;6.140;2024-01-06T05:38:22;94041.53;;;6.04;91.08
21838;BME280;11081;45.946;6.140;2024-01-06T05:40:50;94045.09;;;6.03;90.42
21838;BME280;11081;45.946;6.140;2024-01-06T05:43:18;94043.66;;;6.07;90.78
21838;BME280;11081;45.946;6.140;2024-01-06T05:45:46;94053.47;;;6.05;91.41
21838;BME280;11081;45.946;6.140;2024-01-06T05:48:14;94049.63;;;6.08;90.66
21838;BME280;11081;45.946;6.140;2024-01-06T05:50:44;94046.81;;;6.09;91.72
21838;BME280;11081;45.946;6.140;2024-01-06T05:53:12;94045.25;;;6.08;91.93
21838;BME280;11081;45.946;6.140;2024-01-06T05:55:41;94062.38;;;6.09;91.23
21838;BME280;11081;45.946;6.140;2024-01-06T05:58:08;94054.03;;;6.07;90.73
21838;BME280;11081;45.946;6.140;2024-01-06T06:00:36;94051.28;;;6.02;90.53
21838;BME280;11081;45.946;6.140;2024-01-06T06:03:05;94051.28;;;6.02;91.09
21838;BME280;11081;45.946;6.140;2024-01-06T06:05:34;94054.47;;;6.04;90.46
21838;BME280;11081;45.946;6.140;2024-01-06T06:08:04;94052.44;;;6.06;91.68
21838;BME280;11081;45.946;6.140;2024-01-06T06:10:32;94053.13;;;6.14;91.18
21838;BME280;11081;45.946;6.140;2024-01-06T06:13:18;94051.13;;;6.16;90.83
21838;BME280;11081;45.946;6.140;2024-01-06T06:15:46;94060.34;;;6.11;91.48
21838;BME280;11081;45.946;6.140;2024-01-06T06:18:14;94055.59;;;6.08;91.48
21838;BME280;11081;45.946;6.140;2024-01-06T06:20:43;94058.31;;;6.14;90.62
21838;BME280;11081;45.946;6.140;2024-01-06T06:23:12;94053.94;;;6.14;90.85
21838;BME280;11081;45.946;6.140;2024-01-06T06:25:40;94056.75;;;6.13;90.88
21838;BME280;11081;45.946;6.140;2024-01-06T06:28:08;94058.19;;;6.08;90.96
21838;BME280;11081;45.946;6.140;2024-01-06T06:30:36;94061.78;;;6.07;91.84
21838;BME280;11081;45.946;6.140;2024-01-06T06:33:04;94063.38;;;6.08;91.36
21838;BME280;11081;45.946;6.140;2024-01-06T06:35:32;94069.13;;;6.10;92.11
21838;BME280;11081;45.946;6.140;2024-01-06T06:38:00;94072.72;;;6.09;91.97
21838;BME280;11081;45.946;6.140;2024-01-06T06:40:30;94071.16;;;6.08;91.87
21838;BME280;11081;45.946;6.140;2024-01-06T06:42:58;94070.69;;;6.11;91.80
21838;BME280;11081;45.946;6.140;2024-01-06T06:45:25;94075.00;;;6.18;90.07
21838;BME280;11081;45.946;6.140;2024-01-06T06:47:54;94082.19;;;6.16;88.90
21838;BME280;11081;45.946;6.140;2024-01-06T06:50:22;94087.38;;;6.16;89.72
21838;BME280;11081;45.946;6.140;2024-01-06T06:52:50;94093.13;;;6.18;90.01
21838;BME280;11081;45.946;6.140;2024-01-06T06:55:18;94104.84;;;6.20;89.82
21838;BME280;11081;45.946;6.140;2024-01-06T06:57:47;94098.75;;;6.15;90.32
21838;BME280;11081;45.946;6.140;2024-01-06T07:00:17;94099.75;;;6.14;90.44
21838;BME280;11081;45.946;6.140;2024-01-06T07:02:45;94093.88;;;6.06;90.51
21838;BME280;11081;45.946;6.140;2024-01-06T07:05:13;94098.06;;;6.07;89.91
21838;BME280;11081;45.946;6.140;2024-01-06T07:07:41;94086.03;;;5.95;90.72
21838;BME280;11081;45.946;6.140;2024-01-06T07:10:11;94096.31;;;6.01;90.23
21838;BME280;11081;45.946;6.140;2024-01-06T07:12:39;94099.78;;;5.95;89.74
21838;BME280;11081;45.946;6.140;2024-01-06T07:15:09;94095.16;;;5.97;90.09
21838;BME280;11081;45.946;6.140;2024-01-06T07:17:38;94101.94;;;5.98;91.16
21838;BME280;11081;45.946;6.140;2024-01-06T07:20:07;94096.75;;;5.98;90.91
21838;BME280;11081;45.946;6.140;2024-01-06T07:22:36;94101.94;;;5.98;90.67
21838;BME280;11081;45.946;6.140;2024-01-06T07:25:04;94102.94;;;5.97;91.12
21838;BME280;11081;45.946;6.140;2024-01-06T07:27:34;94103.22;;;5.89;92.19
21838;BME280;11081;45.946;6.140;2024-01-06T07:30:02;94107.56;;;5.95;92.47
21838;BME280;11081;45.946;6.140;2024-01-06T07:32:32;94115.19;;;5.90;91.35
21838;BME280;11081;45.946;6.140;2024-01-06T07:35:00;94125.53;;;5.90;91.05
21838;BME280;11081;45.946;6.140;2024-01-06T07:37:33;94129.97;;;5.83;91.69
21838;BME280;11081;45.946;6.140;2024-01-06T07:40:01;94133.56;;;5.82;90.66
21838;BME280;11081;45.946;6.140;2024-01-06T07:42:29;94132.56;;;5.83;90.36
21838;BME280;11081;45.946;6.140;2024-01-06T07:44:57;94141.47;;;5.87;90.73
21838;BME280;11081;45.946;6.140;2024-01-06T07:47:25;94139.91;;;5.86;90.39
21838;BME280;11081;45.946;6.140;2024-01-06T07:49:54;94144.66;;;5.89;90.75
21838;BME280;11081;45.946;6.140;2024-01-06T07:52:24;94137.03;;;5.94;90.41
21838;BME280;11081;45.946;6.140;2024-01-06T07:54:52;94144.72;;;6.01;89.29
21838;BME280;11081;45.946;6.140;2024-01-06T07:57:20;94152.88;;;6.04;89.52
21838;BME280;11081;45.946;6.140;2024-01-06T07:59:48;94151.84;;;5.87;89.13
21838;BME280;11081;45.946;6.140;2024-01-06T08:02:16;94143.06;;;5.88;89.02
21838;BME280;11081;45.946;6.140;2024-01-06T08:04:45;94149.81;;;5.89;89.58
21838;BME280;11081;45.946;6.140;2024-01-06T08:07:14;94151.34;;;5.97;89.99
21838;BME280;11081;45.946;6.140;2024-01-06T08:09:42;94148.09;;;6.01;88.74
21838;BME280;11081;45.946;6.140;2024-01-06T08:12:10;94157.88;;;5.99;87.70
21838;BME280;11081;45.946;6.140;2024-01-06T08:14:38;94161.06;;;5.83;89.50
21838;BME280;11081;45.946;6.140;2024-01-06T08:17:06;94160.75;;;5.73;90.07
21838;BME280;11081;45.946;6.140;2024-01-06T08:19:34;94149.09;;;5.82;89.57
21838;BME280;11081;45.946;6.140;2024-01-06T08:22:02;94153.00;;;5.91;88.57
21838;BME280;11081;45.946;6.140;2024-01-06T08:24:32;94160.19;;;5.89;87.56
21838;BME280;11081;45.946;6.140;2024-01-06T08:27:00;94161.34;;;5.93;86.88
21838;BME280;11081;45.946;6.140;2024-01-06T08:29:28;94155.66;;;6.03;86.57
21838;BME280;11081;45.946;6.140;2024-01-06T08:31:56;94156.53;;;5.97;86.26
21838;BME280;11081;45.946;6.140;2024-01-06T08:34:24;94158.91;;;5.98;85.40
21838;BME280;11081;45.946;6.140;2024-01-06T08:36:55;94163.06;;;5.99;85.92
21838;BME280;11081;45.946;6.140;2024-01-06T08:39:23;94161.63;;;6.03;86.56
21838;BME280;11081;45.946;6.140;2024-01-06T08:41:53;94170.25;;;6.16;86.87
21838;BME280;11081;45.946;6.140;2024-01-06T08:44:24;94156.44;;;6.22;85.48
21838;BME280;11081;45.946;6.140;2024-01-06T08:46:52;94166.06;;;6.33;85.31
21838;BME280;11081;45.946;6.140;2024-01-06T08:49:20;94177.44;;;6.32;86.87
21838;BME280;11081;45.946;6.140;2024-01-06T08:51:48;94174.84;;;6.32;87.24
21838;BME280;11081;45.946;6.140;2024-01-06T08:54:16;94174.06;;;6.31;87.61
21838;BME280;11081;45.946;6.140;2024-01-06T08:56:43;94175.28;;;6.29;86.87
21838;BME280;11081;45.946;6.140;2024-01-06T08:59:13;94178.00;;;6.34;86.78
21838;BME280;11081;45.946;6.140;2024-01-06T09:01:41;94182.41;;;6.33;86.57
21838;BME280;11081;45.946;6.140;2024-01-06T09:04:10;94187.94;;;6.37;87.24
21838;BME280;11081;45.946;6.140;2024-01-06T09:06:39;94192.84;;;6.27;86.75
21838;BME280;11081;45.946;6.140;2024-01-06T09:09:08;94195.13;;;6.35;86.31
21838;BME280;11081;45.946;6.140;2024-01-06T09:11:36;94193.56;;;6.34;86.98
21838;BME280;11081;45.946;6.140;2024-01-06T09:14:04;94193.81;;;6.44;87.20
21838;BME280;11081;45.946;6.140;2024-01-06T09:16:33;94192.41;;;6.48;87.16
21838;BME280;11081;45.946;6.140;2024-01-06T09:19:01;94190.81;;;6.47;87.23
21838;BME280;11081;45.946;6.140;2024-01-06T09:21:29;94191.38;;;6.49;86.91
21838;BME280;11081;45.946;6.140;2024-01-06T09:23:57;94187.00;;;6.50;86.19
21838;BME280;11081;45.946;6.140;2024-01-06T09:26:27;94193.22;;;6.60;86.57
21838;BME280;11081;45.946;6.140;2024-01-06T09:28:54;94199.97;;;6.61;86.15
21838;BME280;11081;45.946;6.140;2024-01-06T09:31:22;94196.53;;;6.67;85.26
21838;BME280;11081;45.946;6.140;2024-01-06T09:33:52;94202.94;;;6.65;85.63
21838;BME280;11081;45.946;6.140;2024-01-06T09:36:20;94206.19;;;6.60;85.18
21838;BME280;11081;45.946;6.140;2024-01-06T09:38:48;94209.50;;;6.67;85.58
21838;BME280;11081;45.946;6.140;2024-01-06T09:41:16;94209.19;;;6.76;85.91
21838;BME280;11081;45.946;6.140;2024-01-06T09:43:44;94214.59;;;6.74;85.78
21838;BME280;11081;45.946;6.140;2024-01-06T09:46:15;94211.06;;;6.68;84.55
21838;BME280;11081;45.946;6.140;2024-01-06T09:48:47;94214.25;;;6.70;84.76
21838;BME280;11081;45.946;6.140;2024-01-06T09:51:21;94216.97;;;6.76;85.95
21838;BME280;11081;45.946;6.140;2024-01-06T09:53:55;94223.28;;;6.80;86.72
21838;BME280;11081;45.946;6.140;2024-01-06T09:56:24;94221.25;;;6.82;87.21
21838;BME280;11081;45.946;6.140;2024-01-06T09:58:53;94228.47;;;6.80;88.17
21838;BME280;11081;45.946;6.140;2024-01-06T10:01:21;94237.25;;;6.79;86.61
21838;BME280;11081;45.946;6.140;2024-01-06T10:03:49;94233.22;;;6.83;85.85
21838;BME280;11081;45.946;6.140;2024-01-06T10:06:18;94234.94;;;6.89;85.26
21838;BME280;11081;45.946;6.140;2024-01-06T10:08:50;94229.16;;;6.87;84.61
21838;BME280;11081;45.946;6.140;2024-01-06T10:11:18;94227.56;;;6.86;83.44
21838;BME280;11081;45.946;6.140;2024-01-06T10:13:48;94231.47;;;6.95;83.88
21838;BME280;11081;45.946;6.140;2024-01-06T10:16:16;94226.41;;;7.00;83.27
21838;BME280;11081;45.946;6.140;2024-01-06T10:18:45;94227.75;;;7.02;83.92
21838;BME280;11081;45.946;6.140;2024-01-06T10:21:20;94228.69;;;7.08;83.05
21838;BME280;11081;45.946;6.140;2024-01-06T10:23:50;94220.00;;;7.14;82.94
21838;BME280;11081;45.946;6.140;2024-01-06T10:26:18;94222.03;;;7.12;82.52
21838;BME280;11081;45.946;6.140;2024-01-06T10:28:48;94215.44;;;6.98;82.17
21838;BME280;11081;45.946;6.140;2024-01-06T10:31:16;94218.16;;;7.03;83.05
21838;BME280;11081;45.946;6.140;2024-01-06T10:33:44;94223.28;;;7.10;82.96
21838;BME280;11081;45.946;6.140;2024-01-06T10:36:13;94219.91;;;7.09;82.52
21838;BME280;11081;45.946;6.140;2024-01-06T10:38:44;94216.94;;;7.06;82.23
21838;BME280;11081;45.946;6.140;2024-01-06T10:41:15;94219.28;;;7.07;81.24
21838;BME280;11081;45.946;6.140;2024-01-06T10:43:44;94218.63;;;7.00;81.18
21838;BME280;11081;45.946;6.140;2024-01-06T10:46:14;94217.38;;;7.02;81.34
21838;BME280;11081;45.946;6.140;2024-01-06T10:48:43;94208.91;;;7.07;82.05
21838;BME280;11081;45.946;6.140;2024-01-06T10:51:13;94200.84;;;7.15;81.73
21838;BME280;11081;45.946;6.140;2024-01-06T10:53:42;94206.25;;;7.25;81.63
21838;BME280;11081;45.946;6.140;2024-01-06T10:56:11;94207.16;;;7.19;81.22
21838;BME280;11081;45.946;6.140;2024-01-06T10:58:45;94206.25;;;7.25;81.13
21838;BME280;11081;45.946;6.140;2024-01-06T11:01:19;94201.31;;;7.36;81.87
21838;BME280;11081;45.946;6.140;2024-01-06T11:03:54;94208.22;;;7.30;80.27
21838;BME280;11081;45.946;6.140;2024-01-06T11:06:23;94206.19;;;7.32;80.86
21838;BME280;11081;45.946;6.140;2024-01-06T11:08:57;94208.09;;;7.37;80.34
21838;BME280;11081;45.946;6.140;2024-01-06T11:11:28;94204.81;;;7.41;80.60
21838;BME280;11081;45.946;6.140;2024-01-06T11:14:20;94208.75;;;7.20;78.06
21838;BME280;11081;45.946;6.140;2024-01-06T11:16:48;94200.22;;;7.01;78.42
21838;BME280;11081;45.946;6.140;2024-01-06T11:19:44;94202.41;;;7.16;79.00
21838;BME280;11081;45.946;6.140;2024-01-06T11:22:21;94203.53;;;7.20;79.05
21838;BME280;11081;45.946;6.140;2024-01-06T11:24:51;94193.16;;;7.20;79.19
21838;BME280;11081;45.946;6.140;2024-01-06T11:27:20;94199.50;;;7.24;78.49
21838;BME280;11081;45.946;6.140;2024-01-06T11:29:52;94196.66;;;7.26;79.04
21838;BME280;11081;45.946;6.140;2024-01-06T11:32:26;94199.25;;;7.26;78.68
21838;BME280;11081;45.946;6.140;2024-01-06T11:34:55;94195.09;;;7.25;79.05
21838;BME280;11081;45.946;6.140;2024-01-06T11:37:34;94193.63;;;7.17;78.38
21838;BME280;11081;45.946;6.140;2024-01-06T11:40:07;94188.53;;;7.11;79.90
21838;BME280;11081;45.946;6.140;2024-01-06T11:42:35;94184.13;;;7.11;79.11
21838;BME280;11081;45.946;6.140;2024-01-06T11:45:06;94188.81;;;6.91;78.85
21838;BME280;11081;45.946;6.140;2024-01-06T11:47:34;94187.94;;;6.97;79.37
21838;BME280;11081;45.946;6.140;2024-01-06T11:50:03;94188.16;;;7.07;79.04
21838;BME280;11081;45.946;6.140;2024-01-06T11:52:32;94185.72;;;7.12;79.99
21838;BME280;11081;45.946;6.140;2024-01-06T11:55:00;94185.50;;;7.14;79.65
21838;BME280;11081;45.946;6.140;2024-01-06T11:57:29;94176.13;;;7.13;79.72
21838;BME280;11081;45.946;6.140;2024-01-06T11:59:57;94176.47;;;7.16;79.83
21838;BME280;11081;45.946;6.140;2024-01-06T12:02:26;94171.97;;;7.23;79.44
21838;BME280;11081;45.946;6.140;2024-01-06T12:04:54;94168.81;;;7.21;79.09
21838;BME280;11081;45.946;6.140;2024-01-06T12:07:22;94167.78;;;7.22;79.67
21838;BME280;11081;45.946;6.140;2024-01-06T12:09:50;94167.69;;;7.17;78.64
21838;BME280;11081;45.946;6.140;2024-01-06T12:12:19;94167.22;;;7.20;78.75
21838;BME280;11081;45.946;6.140;2024-01-06T12:14:47;94160.78;;;7.23;79.51
21838;BME280;11081;45.946;6.140;2024-01-06T12:17:15;94163.16;;;7.24;78.83
21838;BME280;11081;45.946;6.140;2024-01-06T12:19:45;94167.22;;;7.20;77.97
21838;BME280;11081;45.946;6.140;2024-01-06T12:22:14;94159.66;;;7.19;77.90
21838;BME280;11081;45.946;6.140;2024-01-06T12:24:43;94167.22;;;7.20;78.06
21838;BME280;11081;45.946;6.140;2024-01-06T12:27:11;94159.31;;;7.15;79.04
21838;BME280;11081;45.946;6.140;2024-01-06T12:29:40;94164.72;;;7.02;77.90
21838;BME280;11081;45.946;6.140;2024-01-06T12:32:09;94157.94;;;7.01;78.41
21838;BME280;11081;45.946;6.140;2024-01-06T12:34:40;94156.47;;;7.05;79.01
21838;BME280;11081;45.946;6.140;2024-01-06T12:37:09;94162.22;;;7.07;78.44
21838;BME280;11081;45.946;6.140;2024-01-06T12:39:37;94157.50;;;7.04;78.97
21838;BME280;11081;45.946;6.140;2024-01-06T12:42:06;94139.91;;;7.06;78.35
21838;BME280;11081;45.946;6.140;2024-01-06T12:44:34;94146.25;;;7.10;78.87
21838;BME280;11081;45.946;6.140;2024-01-06T12:47:04;94147.59;;;7.13;79.45
21838;BME280;11081;45.946;6.140;2024-01-06T12:49:32;94148.94;;;7.15;79.11
21838;BME280;11081;45.946;6.140;2024-01-06T12:52:04;94149.84;;;7.09;77.42
21838;BME280;11081;45.946;6.140;2024-01-06T12:54:34;94153.47;;;7.08;77.02
21838;BME280;11081;45.946;6.140;2024-01-06T12:57:02;94163.38;;;7.11;77.77
21838;BME280;11081;45.946;6.140;2024-01-06T12:59:30;94156.16;;;7.13;77.97
21838;BME280;11081;45.946;6.140;2024-01-06T13:01:58;94154.94;;;7.16;78.14
21838;BME280;11081;45.946;6.140;2024-01-06T13:04:26;94154.13;;;7.15;76.88
21838;BME280;11081;45.946;6.140;2024-01-06T13:06:54;94157.81;;;7.08;76.97
21838;BME280;11081;45.946;6.140;2024-01-06T13:09:25;94151.97;;;7.00;77.24
21838;BME280;11081;45.946;6.140;2024-01-06T13:11:55;94149.16;;;7.02;77.98
21838;BME280;11081;45.946;6.140;2024-01-06T13:14:26;94149.84;;;7.09;76.38
21838;BME280;11081;45.946;6.140;2024-01-06T13:16:55;94146.34;;;7.15;76.96
21838;BME280;11081;45.946;6.140;2024-01-06T13:19:25;94147.13;;;7.04;76.63